sensor_id;sensor_type;location;lat;lon;timestamp;P1;durP1;ratioP1;P2;durP2;ratioP2
53688;SDS011;39583;54.682;30.662;2024-01-30T07:47:50;13.50;;;7.78;;
53688;SDS011;39583;54.682;30.662;2024-01-30T07:50:18;16.15;;;8.80;;
53688;SDS011;39583;54.682;30.662;2024-01-30T07:52:46;13.43;;;7.72;;
53688;SDS011;39583;54.682;30.662;2024-01-30T07:55:16;11.80;;;6.90;;
53688;SDS011;39583;54.682;30.662;2024-01-30T07:57:44;10.75;;;6.30;;
53688;SDS011;39583;54.682;30.662;2024-01-30T08:00:12;10.00;;;5.90;;
53688;SDS011;39583;54.682;30.662;2024-01-30T08:02:40;11.70;;;6.47;;
53688;SDS011;39583;54.682;30.662;2024-01-30T08:05:08;12.00;;;6.10;;
53688;SDS011;39583;54.682;30.662;2024-01-30T08:07:38;13.80;;;6.63;;
53688;SDS011;39583;54.682;30.662;2024-01-30T08:10:06;10.93;;;6.10;;
53688;SDS011;39583;54.682;30.662;2024-01-30T08:12:34;10.82;;;5.45;;
53688;SDS011;39583;54.682;30.662;2024-01-30T08:15:01;14.20;;;6.72;;
53688;SDS011;39583;54.682;30.662;2024-01-30T08:17:30;13.30;;;6.85;;
53688;SDS011;39583;54.682;30.662;2024-01-30T08:19:58;10.80;;;6.22;;
53688;SDS011;39583;54.682;30.662;2024-01-30T08:22:26;15.20;;;6.75;;
53688;SDS011;39583;54.682;30.662;2024-01-30T08:24:54;12.82;;;6.95;;
53688;SDS011;39583;54.682;30.662;2024-01-30T08:27:22;15.02;;;7.68;;
53688;SDS011;39583;54.682;30.662;2024-01-30T08:29:49;15.00;;;7.82;;
53688;SDS011;39583;54.682;30.662;2024-01-30T08:32:17;10.80;;;5.93;;
53688;SDS011;39583;54.682;30.662;2024-01-30T08:34:46;11.52;;;6.20;;
53688;SDS011;39583;54.682;30.662;2024-01-30T08:37:13;12.68;;;6.63;;
53688;SDS011;39583;54.682;30.662;2024-01-30T08:39:43;12.73;;;6.65;;
53688;SDS011;39583;54.682;30.662;2024-01-30T08:42:11;10.82;;;7.05;;
53688;SDS011;39583;54.682;30.662;2024-01-30T08:44:39;12.73;;;5.78;;
53688;SDS011;39583;54.682;30.662;2024-01-30T08:47:07;11.30;;;6.15;;
53688;SDS011;39583;54.682;30.662;2024-01-30T08:49:34;13.93;;;6.88;;
53688;SDS011;39583;54.682;30.662;2024-01-30T08:52:02;13.60;;;6.60;;
53688;SDS011;39583;54.682;30.662;2024-01-30T08:54:30;13.07;;;6.78;;
53688;SDS011;39583;54.682;30.662;2024-01-30T08:57:00;13.07;;;5.80;;
53688;SDS011;39583;54.682;30.662;2024-01-30T08:59:28;12.63;;;6.95;;
53688;SDS011;39583;54.682;30.662;2024-01-30T09:01:57;9.98;;;6.13;;
53688;SDS011;39583;54.682;30.662;2024-01-30T09:04:38;10.27;;;6.03;;
53688;SDS011;39583;54.682;30.662;2024-01-30T09:07:08;12.45;;;5.85;;
53688;SDS011;39583;54.682;30.662;2024-01-30T09:09:38;12.15;;;7.07;;
53688;SDS011;39583;54.682;30.662;2024-01-30T09:12:08;11.18;;;6.15;;
53688;SDS011;39583;54.682;30.662;2024-01-30T09:14:39;12.80;;;6.50;;
53688;SDS011;39583;54.682;30.662;2024-01-30T09:17:08;13.10;;;6.50;;
53688;SDS011;39583;54.682;30.662;2024-01-30T09:19:35;11.77;;;6.55;;
53688;SDS011;39583;54.682;30.662;2024-01-30T09:22:03;12.07;;;7.03;;
53688;SDS011;39583;54.682;30.662;2024-01-30T09:24:31;12.65;;;6.38;;
53688;SDS011;39583;54.682;30.662;2024-01-30T09:26:59;11.63;;;6.57;;
53688;SDS011;39583;54.682;30.662;2024-01-30T09:29:27;13.88;;;6.80;;
53688;SDS011;39583;54.682;30.662;2024-01-30T09:31:54;11.10;;;7.07;;
53688;SDS011;39583;54.682;30.662;2024-01-30T09:34:22;12.07;;;6.90;;
53688;SDS011;39583;54.682;30.662;2024-01-30T09:36:50;14.85;;;6.63;;
53688;SDS011;39583;54.682;30.662;2024-01-30T09:39:18;12.60;;;7.20;;
53688;SDS011;39583;54.682;30.662;2024-01-30T09:41:53;10.38;;;6.82;;
53688;SDS011;39583;54.682;30.662;2024-01-30T09:44:29;15.55;;;6.88;;
53688;SDS011;39583;54.682;30.662;2024-01-30T09:46:57;11.30;;;6.85;;
53688;SDS011;39583;54.682;30.662;2024-01-30T09:49:33;10.98;;;6.05;;
53688;SDS011;39583;54.682;30.662;2024-01-30T09:52:03;12.73;;;6.10;;
53688;SDS011;39583;54.682;30.662;2024-01-30T09:54:32;12.18;;;7.30;;
53688;SDS011;39583;54.682;30.662;2024-01-30T09:57:03;12.63;;;5.63;;
53688;SDS011;39583;54.682;30.662;2024-01-30T09:59:32;11.57;;;7.10;;
53688;SDS011;39583;54.682;30.662;2024-01-30T10:02:00;11.65;;;6.68;;
53688;SDS011;39583;54.682;30.662;2024-01-30T10:04:30;10.35;;;6.55;;
53688;SDS011;39583;54.682;30.662;2024-01-30T10:06:59;10.15;;;5.35;;
53688;SDS011;39583;54.682;30.662;2024-01-30T10:09:32;14.32;;;6.78;;
53688;SDS011;39583;54.682;30.662;2024-01-30T10:12:02;12.23;;;6.90;;
53688;SDS011;39583;54.682;30.662;2024-01-30T10:14:30;10.45;;;6.05;;
53688;SDS011;39583;54.682;30.662;2024-01-30T10:16:58;13.07;;;6.93;;
53688;SDS011;39583;54.682;30.662;2024-01-30T10:19:26;12.90;;;7.38;;
53688;SDS011;39583;54.682;30.662;2024-01-30T10:21:55;12.52;;;5.65;;
53688;SDS011;39583;54.682;30.662;2024-01-30T10:24:25;14.10;;;7.50;;
53688;SDS011;39583;54.682;30.662;2024-01-30T10:26:54;14.07;;;6.72;;
53688;SDS011;39583;54.682;30.662;2024-01-30T10:29:22;21.10;;;10.80;;
53688;SDS011;39583;54.682;30.662;2024-01-30T10:32:02;16.88;;;8.75;;
53688;SDS011;39583;54.682;30.662;2024-01-30T10:34:31;14.95;;;7.20;;
53688;SDS011;39583;54.682;30.662;2024-01-30T10:37:09;14.40;;;7.97;;
53688;SDS011;39583;54.682;30.662;2024-01-30T10:39:44;13.07;;;7.97;;
53688;SDS011;39583;54.682;30.662;2024-01-30T10:42:14;17.40;;;9.93;;
53688;SDS011;39583;54.682;30.662;2024-01-30T10:47:31;40.88;;;17.25;;
53688;SDS011;39583;54.682;30.662;2024-01-30T10:50:04;22.97;;;10.70;;
53688;SDS011;39583;54.682;30.662;2024-01-30T10:52:32;15.85;;;8.35;;
53688;SDS011;39583;54.682;30.662;2024-01-30T10:55:00;18.13;;;9.38;;
53688;SDS011;39583;54.682;30.662;2024-01-30T10:57:28;16.73;;;9.52;;
53688;SDS011;39583;54.682;30.662;2024-01-30T10:59:57;13.50;;;7.75;;
53688;SDS011;39583;54.682;30.662;2024-01-30T11:02:26;14.07;;;8.13;;
53688;SDS011;39583;54.682;30.662;2024-01-30T11:04:57;25.98;;;12.30;;
53688;SDS011;39583;54.682;30.662;2024-01-30T11:07:27;17.58;;;10.05;;
53688;SDS011;39583;54.682;30.662;2024-01-30T11:12:32;12.98;;;8.07;;
53688;SDS011;39583;54.682;30.662;2024-01-30T11:15:07;14.60;;;7.65;;
53688;SDS011;39583;54.682;30.662;2024-01-30T11:17:43;18.33;;;10.73;;
53688;SDS011;39583;54.682;30.662;2024-01-30T11:22:50;16.77;;;8.82;;
53688;SDS011;39583;54.682;30.662;2024-01-30T11:25:20;17.05;;;9.27;;
53688;SDS011;39583;54.682;30.662;2024-01-30T11:27:51;16.77;;;8.35;;
53688;SDS011;39583;54.682;30.662;2024-01-30T11:30:27;13.40;;;7.78;;
53688;SDS011;39583;54.682;30.662;2024-01-30T11:33:03;18.50;;;8.52;;
53688;SDS011;39583;54.682;30.662;2024-01-30T11:35:35;12.80;;;7.07;;
53688;SDS011;39583;54.682;30.662;2024-01-30T11:38:04;12.40;;;6.78;;
53688;SDS011;39583;54.682;30.662;2024-01-30T11:40:33;11.40;;;6.28;;
53688;SDS011;39583;54.682;30.662;2024-01-30T11:43:03;14.18;;;5.50;;
53688;SDS011;39583;54.682;30.662;2024-01-30T11:45:33;13.02;;;6.82;;
53688;SDS011;39583;54.682;30.662;2024-01-30T11:48:02;12.32;;;7.35;;
53688;SDS011;39583;54.682;30.662;2024-01-30T11:50:32;12.35;;;6.88;;
53688;SDS011;39583;54.682;30.662;2024-01-30T11:53:01;13.18;;;7.25;;
53688;SDS011;39583;54.682;30.662;2024-01-30T11:55:29;12.68;;;7.10;;
53688;SDS011;39583;54.682;30.662;2024-01-30T11:58:01;12.20;;;6.80;;
53688;SDS011;39583;54.682;30.662;2024-01-30T12:00:30;12.20;;;6.60;;
53688;SDS011;39583;54.682;30.662;2024-01-30T12:02:58;12.40;;;6.22;;
53688;SDS011;39583;54.682;30.662;2024-01-30T12:05:28;10.25;;;6.35;;
53688;SDS011;39583;54.682;30.662;2024-01-30T12:07:57;11.00;;;6.65;;
53688;SDS011;39583;54.682;30.662;2024-01-30T12:10:29;14.90;;;7.90;;
53688;SDS011;39583;54.682;30.662;2024-01-30T12:12:57;15.25;;;8.38;;
53688;SDS011;39583;54.682;30.662;2024-01-30T12:15:25;15.15;;;9.05;;
53688;SDS011;39583;54.682;30.662;2024-01-30T12:18:03;18.50;;;9.25;;
53688;SDS011;39583;54.682;30.662;2024-01-30T12:20:33;15.60;;;7.90;;
53688;SDS011;39583;54.682;30.662;2024-01-30T12:23:00;15.65;;;8.45;;
53688;SDS011;39583;54.682;30.662;2024-01-30T12:25:28;15.82;;;8.95;;
53688;SDS011;39583;54.682;30.662;2024-01-30T12:27:57;17.05;;;9.30;;
53688;SDS011;39583;54.682;30.662;2024-01-30T12:30:25;13.15;;;8.25;;
53688;SDS011;39583;54.682;30.662;2024-01-30T12:32:52;13.15;;;7.88;;
53688;SDS011;39583;54.682;30.662;2024-01-30T12:35:20;18.60;;;8.43;;
53688;SDS011;39583;54.682;30.662;2024-01-30T12:37:49;18.27;;;9.35;;
53688;SDS011;39583;54.682;30.662;2024-01-30T12:40:17;15.32;;;8.32;;
53688;SDS011;39583;54.682;30.662;2024-01-30T12:42:46;16.02;;;7.38;;
53688;SDS011;39583;54.682;30.662;2024-01-30T12:45:17;14.77;;;8.07;;
53688;SDS011;39583;54.682;30.662;2024-01-30T12:47:50;14.68;;;7.45;;
53688;SDS011;39583;54.682;30.662;2024-01-30T12:50:19;11.68;;;7.32;;
53688;SDS011;39583;54.682;30.662;2024-01-30T12:52:46;12.73;;;7.60;;
53688;SDS011;39583;54.682;30.662;2024-01-30T12:55:16;14.68;;;7.88;;
53688;SDS011;39583;54.682;30.662;2024-01-30T12:57:45;14.15;;;7.85;;
53688;SDS011;39583;54.682;30.662;2024-01-30T13:00:13;14.30;;;8.60;;
53688;SDS011;39583;54.682;30.662;2024-01-30T13:02:44;13.88;;;7.47;;
53688;SDS011;39583;54.682;30.662;2024-01-30T13:05:13;14.80;;;8.05;;
53688;SDS011;39583;54.682;30.662;2024-01-30T13:07:42;13.52;;;7.00;;
53688;SDS011;39583;54.682;30.662;2024-01-30T13:10:10;13.05;;;7.43;;
53688;SDS011;39583;54.682;30.662;2024-01-30T13:12:38;12.77;;;7.35;;
53688;SDS011;39583;54.682;30.662;2024-01-30T13:15:05;14.95;;;7.53;;
53688;SDS011;39583;54.682;30.662;2024-01-30T13:17:33;15.15;;;8.48;;
53688;SDS011;39583;54.682;30.662;2024-01-30T13:20:01;16.98;;;7.50;;
53688;SDS011;39583;54.682;30.662;2024-01-30T13:22:37;15.13;;;7.20;;
53688;SDS011;39583;54.682;30.662;2024-01-30T13:25:06;12.45;;;7.53;;
53688;SDS011;39583;54.682;30.662;2024-01-30T13:27:36;16.27;;;7.07;;
53688;SDS011;39583;54.682;30.662;2024-01-30T13:30:06;17.20;;;7.45;;
53688;SDS011;39583;54.682;30.662;2024-01-30T13:32:40;11.82;;;6.97;;
53688;SDS011;39583;54.682;30.662;2024-01-30T13:35:11;15.02;;;6.35;;
53688;SDS011;39583;54.682;30.662;2024-01-30T13:37:39;16.60;;;7.45;;
53688;SDS011;39583;54.682;30.662;2024-01-30T13:40:12;11.93;;;7.13;;
53688;SDS011;39583;54.682;30.662;2024-01-30T13:42:41;16.02;;;7.20;;
53688;SDS011;39583;54.682;30.662;2024-01-30T13:45:10;13.55;;;6.47;;
53688;SDS011;39583;54.682;30.662;2024-01-30T13:47:39;16.10;;;7.70;;
53688;SDS011;39583;54.682;30.662;2024-01-30T13:50:06;17.88;;;7.47;;
53688;SDS011;39583;54.682;30.662;2024-01-30T13:52:35;12.90;;;7.35;;
53688;SDS011;39583;54.682;30.662;2024-01-30T13:55:15;17.30;;;7.88;;
53688;SDS011;39583;54.682;30.662;2024-01-30T13:57:45;14.75;;;7.40;;
53688;SDS011;39583;54.682;30.662;2024-01-30T14:00:16;13.15;;;6.90;;
53688;SDS011;39583;54.682;30.662;2024-01-30T14:02:44;12.45;;;6.35;;
53688;SDS011;39583;54.682;30.662;2024-01-30T14:05:12;13.52;;;6.57;;
53688;SDS011;39583;54.682;30.662;2024-01-30T14:07:41;10.25;;;6.15;;
53688;SDS011;39583;54.682;30.662;2024-01-30T14:10:11;15.02;;;6.78;;
53688;SDS011;39583;54.682;30.662;2024-01-30T14:12:42;13.15;;;6.75;;
53688;SDS011;39583;54.682;30.662;2024-01-30T14:15:11;10.85;;;6.25;;
53688;SDS011;39583;54.682;30.662;2024-01-30T14:17:53;18.70;;;6.68;;
53688;SDS011;39583;54.682;30.662;2024-01-30T14:20:22;16.42;;;7.38;;
53688;SDS011;39583;54.682;30.662;2024-01-30T14:22:50;11.60;;;5.63;;
53688;SDS011;39583;54.682;30.662;2024-01-30T14:25:18;12.15;;;6.47;;
53688;SDS011;39583;54.682;30.662;2024-01-30T14:27:47;13.15;;;7.03;;
53688;SDS011;39583;54.682;30.662;2024-01-30T14:30:15;11.82;;;6.80;;
53688;SDS011;39583;54.682;30.662;2024-01-30T14:32:43;14.60;;;7.03;;
53688;SDS011;39583;54.682;30.662;2024-01-30T14:35:12;8.43;;;4.65;;
53688;SDS011;39583;54.682;30.662;2024-01-30T14:37:40;7.88;;;4.35;;
53688;SDS011;39583;54.682;30.662;2024-01-30T14:40:08;11.23;;;6.13;;
53688;SDS011;39583;54.682;30.662;2024-01-30T14:42:36;10.82;;;5.80;;
53688;SDS011;39583;54.682;30.662;2024-01-30T14:45:05;16.00;;;7.03;;
53688;SDS011;39583;54.682;30.662;2024-01-30T14:47:34;12.15;;;5.97;;
53688;SDS011;39583;54.682;30.662;2024-01-30T14:50:03;13.05;;;6.57;;
53688;SDS011;39583;54.682;30.662;2024-01-30T14:52:35;9.23;;;5.10;;
53688;SDS011;39583;54.682;30.662;2024-01-30T14:55:04;14.20;;;5.78;;
53688;SDS011;39583;54.682;30.662;2024-01-30T14:57:32;12.13;;;6.05;;
53688;SDS011;39583;54.682;30.662;2024-01-30T15:00:02;13.10;;;6.32;;
53688;SDS011;39583;54.682;30.662;2024-01-30T15:02:30;11.23;;;5.68;;
53688;SDS011;39583;54.682;30.662;2024-01-30T15:04:58;13.32;;;6.65;;
53688;SDS011;39583;54.682;30.662;2024-01-30T15:07:27;12.73;;;5.82;;
53688;SDS011;39583;54.682;30.662;2024-01-30T15:10:06;10.98;;;6.22;;
53688;SDS011;39583;54.682;30.662;2024-01-30T15:12:36;11.35;;;5.50;;
53688;SDS011;39583;54.682;30.662;2024-01-30T15:15:06;13.15;;;6.10;;
53688;SDS011;39583;54.682;30.662;2024-01-30T15:17:37;11.40;;;5.25;;
53688;SDS011;39583;54.682;30.662;2024-01-30T15:20:06;9.60;;;5.57;;
53688;SDS011;39583;54.682;30.662;2024-01-30T15:22:34;14.30;;;6.82;;
53688;SDS011;39583;54.682;30.662;2024-01-30T15:25:02;12.20;;;6.30;;
53688;SDS011;39583;54.682;30.662;2024-01-30T15:27:30;13.00;;;6.72;;
53688;SDS011;39583;54.682;30.662;2024-01-30T15:29:58;14.02;;;6.90;;
53688;SDS011;39583;54.682;30.662;2024-01-30T15:32:26;12.77;;;6.95;;
53688;SDS011;39583;54.682;30.662;2024-01-30T15:34:56;16.08;;;7.43;;
53688;SDS011;39583;54.682;30.662;2024-01-30T15:37:29;12.10;;;6.15;;
53688;SDS011;39583;54.682;30.662;2024-01-30T15:39:57;11.07;;;6.20;;
53688;SDS011;39583;54.682;30.662;2024-01-30T15:42:25;11.10;;;5.60;;
53688;SDS011;39583;54.682;30.662;2024-01-30T15:44:53;12.32;;;6.68;;
53688;SDS011;39583;54.682;30.662;2024-01-30T15:47:21;13.00;;;7.00;;
53688;SDS011;39583;54.682;30.662;2024-01-30T15:49:49;17.08;;;7.30;;
53688;SDS011;39583;54.682;30.662;2024-01-30T15:52:17;14.75;;;6.85;;
53688;SDS011;39583;54.682;30.662;2024-01-30T15:54:45;11.85;;;7.35;;
53688;SDS011;39583;54.682;30.662;2024-01-30T15:57:14;14.85;;;6.93;;
53688;SDS011;39583;54.682;30.662;2024-01-30T15:59:42;11.50;;;6.80;;
53688;SDS011;39583;54.682;30.662;2024-01-30T16:02:09;23.45;;;7.35;;
53688;SDS011;39583;54.682;30.662;2024-01-30T16:04:37;15.98;;;7.75;;
53688;SDS011;39583;54.682;30.662;2024-01-30T16:07:05;15.00;;;8.02;;
53688;SDS011;39583;54.682;30.662;2024-01-30T16:09:33;18.67;;;7.85;;
53688;SDS011;39583;54.682;30.662;2024-01-30T16:12:01;15.15;;;7.97;;
53688;SDS011;39583;54.682;30.662;2024-01-30T16:14:30;22.75;;;9.98;;
53688;SDS011;39583;54.682;30.662;2024-01-30T16:16:58;17.65;;;9.20;;
53688;SDS011;39583;54.682;30.662;2024-01-30T16:19:33;14.45;;;7.85;;
53688;SDS011;39583;54.682;30.662;2024-01-30T16:22:06;15.55;;;8.35;;
53688;SDS011;39583;54.682;30.662;2024-01-30T16:27:07;19.48;;;7.93;;
53688;SDS011;39583;54.682;30.662;2024-01-30T16:29:38;14.95;;;7.95;;
53688;SDS011;39583;54.682;30.662;2024-01-30T16:32:18;20.10;;;9.30;;
53688;SDS011;39583;54.682;30.662;2024-01-30T16:34:59;15.60;;;8.02;;
53688;SDS011;39583;54.682;30.662;2024-01-30T16:37:30;15.88;;;8.40;;
53688;SDS011;39583;54.682;30.662;2024-01-30T16:39:57;15.57;;;8.38;;
53688;SDS011;39583;54.682;30.662;2024-01-30T16:42:26;17.23;;;9.30;;
53688;SDS011;39583;54.682;30.662;2024-01-30T16:44:54;18.50;;;9.55;;
53688;SDS011;39583;54.682;30.662;2024-01-30T16:47:22;19.17;;;9.40;;
53688;SDS011;39583;54.682;30.662;2024-01-30T16:49:49;19.08;;;9.35;;
53688;SDS011;39583;54.682;30.662;2024-01-30T16:52:17;21.58;;;9.98;;
53688;SDS011;39583;54.682;30.662;2024-01-30T16:54:47;19.35;;;10.07;;
53688;SDS011;39583;54.682;30.662;2024-01-30T16:57:15;20.63;;;10.05;;
53688;SDS011;39583;54.682;30.662;2024-01-30T16:59:43;24.33;;;11.25;;
53688;SDS011;39583;54.682;30.662;2024-01-30T17:02:11;21.95;;;11.10;;
53688;SDS011;39583;54.682;30.662;2024-01-30T17:04:38;21.30;;;10.40;;
53688;SDS011;39583;54.682;30.662;2024-01-30T17:07:06;27.27;;;11.18;;
53688;SDS011;39583;54.682;30.662;2024-01-30T17:09:35;19.67;;;10.32;;
53688;SDS011;39583;54.682;30.662;2024-01-30T17:12:02;22.20;;;10.40;;
53688;SDS011;39583;54.682;30.662;2024-01-30T17:14:30;18.00;;;9.93;;
53688;SDS011;39583;54.682;30.662;2024-01-30T17:16:59;22.30;;;10.45;;
53688;SDS011;39583;54.682;30.662;2024-01-30T17:19:39;20.73;;;10.23;;
53688;SDS011;39583;54.682;30.662;2024-01-30T17:22:06;22.60;;;10.88;;
53688;SDS011;39583;54.682;30.662;2024-01-30T17:24:34;19.52;;;10.60;;
53688;SDS011;39583;54.682;30.662;2024-01-30T17:27:16;19.60;;;9.95;;
53688;SDS011;39583;54.682;30.662;2024-01-30T17:29:44;21.38;;;11.00;;
53688;SDS011;39583;54.682;30.662;2024-01-30T17:32:12;23.15;;;11.75;;
53688;SDS011;39583;54.682;30.662;2024-01-30T17:34:40;25.38;;;10.43;;
53688;SDS011;39583;54.682;30.662;2024-01-30T17:37:08;22.80;;;10.48;;
53688;SDS011;39583;54.682;30.662;2024-01-30T17:39:36;24.73;;;12.27;;
53688;SDS011;39583;54.682;30.662;2024-01-30T17:42:04;28.90;;;11.10;;
53688;SDS011;39583;54.682;30.662;2024-01-30T17:44:31;24.27;;;10.43;;
53688;SDS011;39583;54.682;30.662;2024-01-30T17:47:03;20.63;;;10.80;;
53688;SDS011;39583;54.682;30.662;2024-01-30T17:49:34;23.10;;;10.77;;
53688;SDS011;39583;54.682;30.662;2024-01-30T17:52:02;21.70;;;11.57;;
53688;SDS011;39583;54.682;30.662;2024-01-30T17:54:30;22.65;;;10.57;;
53688;SDS011;39583;54.682;30.662;2024-01-30T17:56:58;17.92;;;10.02;;
53688;SDS011;39583;54.682;30.662;2024-01-30T17:59:25;22.17;;;10.15;;
53688;SDS011;39583;54.682;30.662;2024-01-30T18:01:54;23.55;;;11.10;;
53688;SDS011;39583;54.682;30.662;2024-01-30T18:04:22;25.40;;;11.05;;
53688;SDS011;39583;54.682;30.662;2024-01-30T18:06:50;25.80;;;10.88;;
53688;SDS011;39583;54.682;30.662;2024-01-30T18:09:23;22.40;;;10.05;;
53688;SDS011;39583;54.682;30.662;2024-01-30T18:11:54;21.25;;;10.25;;
53688;SDS011;39583;54.682;30.662;2024-01-30T18:14:21;21.92;;;10.02;;
53688;SDS011;39583;54.682;30.662;2024-01-30T18:16:50;15.77;;;9.20;;
53688;SDS011;39583;54.682;30.662;2024-01-30T18:19:18;18.88;;;9.52;;
53688;SDS011;39583;54.682;30.662;2024-01-30T18:21:46;21.70;;;10.68;;
53688;SDS011;39583;54.682;30.662;2024-01-30T18:24:14;25.60;;;11.95;;
53688;SDS011;39583;54.682;30.662;2024-01-30T18:26:41;21.33;;;10.25;;
53688;SDS011;39583;54.682;30.662;2024-01-30T18:29:09;21.23;;;10.43;;
53688;SDS011;39583;54.682;30.662;2024-01-30T18:31:37;22.27;;;11.23;;
53688;SDS011;39583;54.682;30.662;2024-01-30T18:34:09;21.77;;;11.23;;
53688;SDS011;39583;54.682;30.662;2024-01-30T18:36:37;20.55;;;10.82;;
53688;SDS011;39583;54.682;30.662;2024-01-30T18:39:08;16.55;;;9.63;;
53688;SDS011;39583;54.682;30.662;2024-01-30T18:41:37;20.88;;;10.18;;
53688;SDS011;39583;54.682;30.662;2024-01-30T18:44:05;19.90;;;10.75;;
